sensor_id;sensor_type;location;lat;lon;timestamp;temperature;humidity
18177;DHT22;9213;50.858;3.964;2022-10-31T00:00:14;18.10;58.80
18177;DHT22;9213;50.858;3.964;2022-10-31T00:02:41;18.10;58.50
18177;DHT22;9213;50.858;3.964;2022-10-31T00:05:08;18.10;58.50
18177;DHT22;9213;50.858;3.964;2022-10-31T00:07:36;18.00;58.60
18177;DHT22;9213;50.858;3.964;2022-10-31T00:10:04;18.00;58.60
18177;DHT22;9213;50.858;3.964;2022-10-31T00:12:31;17.90;58.50
18177;DHT22;9213;50.858;3.964;2022-10-31T00:14:58;17.90;58.60
18177;DHT22;9213;50.858;3.964;2022-10-31T00:17:25;17.80;58.60
18177;DHT22;9213;50.858;3.964;2022-10-31T00:19:52;17.80;58.70
18177;DHT22;9213;50.858;3.964;2022-10-31T00:22:18;17.70;58.70
18177;DHT22;9213;50.858;3.964;2022-10-31T00:24:47;17.70;58.90
18177;DHT22;9213;50.858;3.964;2022-10-31T00:27:14;17.60;58.70
18177;DHT22;9213;50.858;3.964;2022-10-31T00:29:41;17.60;58.80
18177;DHT22;9213;50.858;3.964;2022-10-31T00:32:08;17.50;58.80
18177;DHT22;9213;50.858;3.964;2022-10-31T00:34:34;17.50;58.90
18177;DHT22;9213;50.858;3.964;2022-10-31T00:37:01;17.50;59.00
18177;DHT22;9213;50.858;3.964;2022-10-31T00:39:28;17.40;59.00
18177;DHT22;9213;50.858;3.964;2022-10-31T00:41:56;17.30;59.20
18177;DHT22;9213;50.858;3.964;2022-10-31T00:44:23;17.30;59.30
18177;DHT22;9213;50.858;3.964;2022-10-31T00:46:50;17.30;59.10
18177;DHT22;9213;50.858;3.964;2022-10-31T00:49:17;17.20;59.00
18177;DHT22;9213;50.858;3.964;2022-10-31T00:51:43;17.20;59.00
18177;DHT22;9213;50.858;3.964;2022-10-31T00:54:10;17.10;58.90
18177;DHT22;9213;50.858;3.964;2022-10-31T00:56:37;17.10;59.00
18177;DHT22;9213;50.858;3.964;2022-10-31T00:59:05;17.00;58.80
18177;DHT22;9213;50.858;3.964;2022-10-31T01:01:32;17.00;58.70
18177;DHT22;9213;50.858;3.964;2022-10-31T01:03:59;17.00;58.90
18177;DHT22;9213;50.858;3.964;2022-10-31T01:06:26;16.90;59.00
18177;DHT22;9213;50.858;3.964;2022-10-31T01:08:52;16.80;59.10
18177;DHT22;9213;50.858;3.964;2022-10-31T01:11:21;16.80;59.20
18177;DHT22;9213;50.858;3.964;2022-10-31T01:13:51;16.80;59.40
18177;DHT22;9213;50.858;3.964;2022-10-31T01:16:21;16.80;59.50
18177;DHT22;9213;50.858;3.964;2022-10-31T01:18:48;16.80;59.70
18177;DHT22;9213;50.858;3.964;2022-10-31T01:21:16;16.80;59.70
18177;DHT22;9213;50.858;3.964;2022-10-31T01:23:44;16.70;59.70
18177;DHT22;9213;50.858;3.964;2022-10-31T01:26:12;16.70;59.90
18177;DHT22;9213;50.858;3.964;2022-10-31T01:28:44;16.70;60.00
18177;DHT22;9213;50.858;3.964;2022-10-31T01:31:11;16.70;60.10
18177;DHT22;9213;50.858;3.964;2022-10-31T01:33:40;16.70;60.10
18177;DHT22;9213;50.858;3.964;2022-10-31T01:36:15;16.70;60.40
18177;DHT22;9213;50.858;3.964;2022-10-31T01:38:42;16.70;60.50
18177;DHT22;9213;50.858;3.964;2022-10-31T01:41:10;16.70;60.50
18177;DHT22;9213;50.858;3.964;2022-10-31T01:43:47;16.70;60.50
18177;DHT22;9213;50.858;3.964;2022-10-31T01:46:16;16.70;60.70
18177;DHT22;9213;50.858;3.964;2022-10-31T01:48:46;16.70;60.60
18177;DHT22;9213;50.858;3.964;2022-10-31T01:51:17;16.70;60.60
18177;DHT22;9213;50.858;3.964;2022-10-31T01:53:47;16.70;60.70
18177;DHT22;9213;50.858;3.964;2022-10-31T01:56:15;16.70;60.80
18177;DHT22;9213;50.858;3.964;2022-10-31T01:58:44;16.60;60.80
18177;DHT22;9213;50.858;3.964;2022-10-31T02:01:13;16.60;60.70
18177;DHT22;9213;50.858;3.964;2022-10-31T02:03:40;16.60;60.70
18177;DHT22;9213;50.858;3.964;2022-10-31T02:06:12;16.60;60.70
18177;DHT22;9213;50.858;3.964;2022-10-31T02:08:40;16.50;60.70
18177;DHT22;9213;50.858;3.964;2022-10-31T02:11:09;16.50;60.70
18177;DHT22;9213;50.858;3.964;2022-10-31T02:13:37;16.50;60.60
18177;DHT22;9213;50.858;3.964;2022-10-31T02:16:04;16.40;60.50
18177;DHT22;9213;50.858;3.964;2022-10-31T02:18:31;16.40;60.50
18177;DHT22;9213;50.858;3.964;2022-10-31T02:21:04;16.40;60.50
18177;DHT22;9213;50.858;3.964;2022-10-31T02:24:00;16.40;60.70
18177;DHT22;9213;50.858;3.964;2022-10-31T02:27:07;16.40;60.60
18177;DHT22;9213;50.858;3.964;2022-10-31T02:30:05;16.40;60.40
18177;DHT22;9213;50.858;3.964;2022-10-31T02:32:50;16.40;60.40
18177;DHT22;9213;50.858;3.964;2022-10-31T02:35:28;16.30;60.50
18177;DHT22;9213;50.858;3.964;2022-10-31T02:38:05;16.20;60.50
18177;DHT22;9213;50.858;3.964;2022-10-31T02:40:42;16.20;60.60
18177;DHT22;9213;50.858;3.964;2022-10-31T02:43:18;16.20;60.80
18177;DHT22;9213;50.858;3.964;2022-10-31T02:45:52;16.10;60.80
18177;DHT22;9213;50.858;3.964;2022-10-31T02:48:26;16.10;60.70
18177;DHT22;9213;50.858;3.964;2022-10-31T02:50:56;16.10;60.70
18177;DHT22;9213;50.858;3.964;2022-10-31T02:53:24;16.10;60.50
18177;DHT22;9213;50.858;3.964;2022-10-31T02:55:56;16.00;60.30
18177;DHT22;9213;50.858;3.964;2022-10-31T02:58:26;16.00;60.60
18177;DHT22;9213;50.858;3.964;2022-10-31T03:01:17;16.00;60.60
18177;DHT22;9213;50.858;3.964;2022-10-31T03:03:57;16.00;60.80
18177;DHT22;9213;50.858;3.964;2022-10-31T03:06:31;16.00;60.70
18177;DHT22;9213;50.858;3.964;2022-10-31T03:09:05;16.00;60.70
18177;DHT22;9213;50.858;3.964;2022-10-31T03:11:42;15.90;60.90
18177;DHT22;9213;50.858;3.964;2022-10-31T03:14:16;15.90;61.10
18177;DHT22;9213;50.858;3.964;2022-10-31T03:16:47;15.90;61.10
18177;DHT22;9213;50.858;3.964;2022-10-31T03:19:18;15.90;61.20
18177;DHT22;9213;50.858;3.964;2022-10-31T03:21:48;15.90;61.30
18177;DHT22;9213;50.858;3.964;2022-10-31T03:24:16;15.90;61.30
18177;DHT22;9213;50.858;3.964;2022-10-31T03:26:52;15.80;61.10
18177;DHT22;9213;50.858;3.964;2022-10-31T03:29:23;15.80;61.20
18177;DHT22;9213;50.858;3.964;2022-10-31T03:31:55;15.80;61.30
18177;DHT22;9213;50.858;3.964;2022-10-31T03:34:24;15.80;61.30
18177;DHT22;9213;50.858;3.964;2022-10-31T03:36:54;15.80;61.20
18177;DHT22;9213;50.858;3.964;2022-10-31T03:39:23;15.70;61.20
18177;DHT22;9213;50.858;3.964;2022-10-31T03:41:53;15.70;61.30
18177;DHT22;9213;50.858;3.964;2022-10-31T03:44:22;15.70;61.20
18177;DHT22;9213;50.858;3.964;2022-10-31T03:46:49;15.70;61.10
18177;DHT22;9213;50.858;3.964;2022-10-31T03:49:17;15.60;61.00
18177;DHT22;9213;50.858;3.964;2022-10-31T03:51:47;15.60;61.10
18177;DHT22;9213;50.858;3.964;2022-10-31T03:54:24;15.70;61.40
18177;DHT22;9213;50.858;3.964;2022-10-31T03:56:54;15.70;61.60
18177;DHT22;9213;50.858;3.964;2022-10-31T03:59:26;15.60;61.40
18177;DHT22;9213;50.858;3.964;2022-10-31T04:01:57;15.60;61.40
18177;DHT22;9213;50.858;3.964;2022-10-31T04:04:26;15.60;61.10
18177;DHT22;9213;50.858;3.964;2022-10-31T04:06:56;15.50;60.90
18177;DHT22;9213;50.858;3.964;2022-10-31T04:09:26;15.50;60.90
18177;DHT22;9213;50.858;3.964;2022-10-31T04:11:56;15.50;60.70
18177;DHT22;9213;50.858;3.964;2022-10-31T04:14:26;15.50;60.80
18177;DHT22;9213;50.858;3.964;2022-10-31T04:16:54;15.40;60.90
18177;DHT22;9213;50.858;3.964;2022-10-31T04:19:21;15.40;60.90
18177;DHT22;9213;50.858;3.964;2022-10-31T04:21:48;15.40;60.90
18177;DHT22;9213;50.858;3.964;2022-10-31T04:24:16;15.40;60.70
18177;DHT22;9213;50.858;3.964;2022-10-31T04:26:43;15.30;60.70
18177;DHT22;9213;50.858;3.964;2022-10-31T04:29:09;15.30;60.70
18177;DHT22;9213;50.858;3.964;2022-10-31T04:31:36;15.30;61.10
18177;DHT22;9213;50.858;3.964;2022-10-31T04:34:03;15.30;60.90
18177;DHT22;9213;50.858;3.964;2022-10-31T04:36:30;15.30;61.00
18177;DHT22;9213;50.858;3.964;2022-10-31T04:38:57;15.30;60.90
18177;DHT22;9213;50.858;3.964;2022-10-31T04:41:25;15.30;60.90
18177;DHT22;9213;50.858;3.964;2022-10-31T04:43:52;15.30;61.00
18177;DHT22;9213;50.858;3.964;2022-10-31T04:46:19;15.30;60.80
18177;DHT22;9213;50.858;3.964;2022-10-31T04:48:45;15.30;60.80
18177;DHT22;9213;50.858;3.964;2022-10-31T04:51:12;15.30;60.80
18177;DHT22;9213;50.858;3.964;2022-10-31T04:53:39;15.30;60.90
18177;DHT22;9213;50.858;3.964;2022-10-31T04:56:06;15.30;61.10
18177;DHT22;9213;50.858;3.964;2022-10-31T04:58:35;15.30;61.40
18177;DHT22;9213;50.858;3.964;2022-10-31T05:01:01;15.30;61.60
18177;DHT22;9213;50.858;3.964;2022-10-31T05:03:28;15.30;61.70
18177;DHT22;9213;50.858;3.964;2022-10-31T05:05:55;15.30;61.60
18177;DHT22;9213;50.858;3.964;2022-10-31T05:08:22;15.20;61.10
18177;DHT22;9213;50.858;3.964;2022-10-31T05:10:49;15.20;60.80
18177;DHT22;9213;50.858;3.964;2022-10-31T05:13:16;15.20;60.60
18177;DHT22;9213;50.858;3.964;2022-10-31T05:15:44;15.20;60.50
18177;DHT22;9213;50.858;3.964;2022-10-31T05:18:11;15.20;60.60
18177;DHT22;9213;50.858;3.964;2022-10-31T05:20:38;15.20;60.80
18177;DHT22;9213;50.858;3.964;2022-10-31T05:23:05;15.20;61.20
18177;DHT22;9213;50.858;3.964;2022-10-31T05:25:31;15.20;61.50
18177;DHT22;9213;50.858;3.964;2022-10-31T05:27:58;15.20;61.70
18177;DHT22;9213;50.858;3.964;2022-10-31T05:30:27;15.20;61.70
18177;DHT22;9213;50.858;3.964;2022-10-31T05:32:56;15.20;61.90
18177;DHT22;9213;50.858;3.964;2022-10-31T05:35:25;15.30;62.10
18177;DHT22;9213;50.858;3.964;2022-10-31T05:37:52;15.30;62.20
18177;DHT22;9213;50.858;3.964;2022-10-31T05:40:20;15.30;62.30
18177;DHT22;9213;50.858;3.964;2022-10-31T05:42:49;15.30;62.30
18177;DHT22;9213;50.858;3.964;2022-10-31T05:45:17;15.30;62.40
18177;DHT22;9213;50.858;3.964;2022-10-31T05:47:50;15.40;62.50
18177;DHT22;9213;50.858;3.964;2022-10-31T05:50:18;15.40;62.60
18177;DHT22;9213;50.858;3.964;2022-10-31T05:52:45;15.40;62.50
18177;DHT22;9213;50.858;3.964;2022-10-31T05:55:13;15.40;62.50
18177;DHT22;9213;50.858;3.964;2022-10-31T05:57:39;15.40;62.50
18177;DHT22;9213;50.858;3.964;2022-10-31T06:00:08;15.40;62.60
18177;DHT22;9213;50.858;3.964;2022-10-31T06:02:35;15.40;62.80
18177;DHT22;9213;50.858;3.964;2022-10-31T06:05:01;15.50;62.90
18177;DHT22;9213;50.858;3.964;2022-10-31T06:07:33;15.50;63.00
18177;DHT22;9213;50.858;3.964;2022-10-31T06:10:01;15.60;62.90
18177;DHT22;9213;50.858;3.964;2022-10-31T06:12:28;15.60;62.40
18177;DHT22;9213;50.858;3.964;2022-10-31T06:14:55;15.60;63.00
18177;DHT22;9213;50.858;3.964;2022-10-31T06:17:22;15.70;62.30
18177;DHT22;9213;50.858;3.964;2022-10-31T06:19:49;15.70;62.40
18177;DHT22;9213;50.858;3.964;2022-10-31T06:22:15;15.70;62.50
18177;DHT22;9213;50.858;3.964;2022-10-31T06:24:44;15.70;62.50
18177;DHT22;9213;50.858;3.964;2022-10-31T06:27:10;15.80;62.50
18177;DHT22;9213;50.858;3.964;2022-10-31T06:29:37;15.80;62.50
18177;DHT22;9213;50.858;3.964;2022-10-31T06:32:04;15.80;62.50
18177;DHT22;9213;50.858;3.964;2022-10-31T06:34:31;15.90;62.50
18177;DHT22;9213;50.858;3.964;2022-10-31T06:36:58;15.80;62.00
18177;DHT22;9213;50.858;3.964;2022-10-31T06:39:25;15.80;61.90
18177;DHT22;9213;50.858;3.964;2022-10-31T06:41:53;15.90;61.90
18177;DHT22;9213;50.858;3.964;2022-10-31T06:44:20;15.90;61.80
18177;DHT22;9213;50.858;3.964;2022-10-31T06:46:47;15.80;61.60
18177;DHT22;9213;50.858;3.964;2022-10-31T06:49:14;15.80;61.50
18177;DHT22;9213;50.858;3.964;2022-10-31T06:51:41;15.90;61.50
18177;DHT22;9213;50.858;3.964;2022-10-31T06:54:08;15.90;62.30
18177;DHT22;9213;50.858;3.964;2022-10-31T06:56:35;15.90;61.70
18177;DHT22;9213;50.858;3.964;2022-10-31T06:59:03;15.90;61.90
18177;DHT22;9213;50.858;3.964;2022-10-31T07:01:30;15.90;62.00
18177;DHT22;9213;50.858;3.964;2022-10-31T07:03:57;15.90;62.20
18177;DHT22;9213;50.858;3.964;2022-10-31T07:06:24;15.90;63.20
18177;DHT22;9213;50.858;3.964;2022-10-31T07:08:50;15.90;62.50
18177;DHT22;9213;50.858;3.964;2022-10-31T07:11:17;15.90;62.60
18177;DHT22;9213;50.858;3.964;2022-10-31T07:13:44;16.00;62.80
18177;DHT22;9213;50.858;3.964;2022-10-31T07:16:12;16.00;62.90
18177;DHT22;9213;50.858;3.964;2022-10-31T07:18:39;16.00;63.00
18177;DHT22;9213;50.858;3.964;2022-10-31T07:21:06;16.00;62.90
18177;DHT22;9213;50.858;3.964;2022-10-31T07:23:33;16.10;63.10
18177;DHT22;9213;50.858;3.964;2022-10-31T07:26:00;16.10;63.00
18177;DHT22;9213;50.858;3.964;2022-10-31T07:28:27;16.10;63.10
18177;DHT22;9213;50.858;3.964;2022-10-31T07:30:56;16.10;63.10
18177;DHT22;9213;50.858;3.964;2022-10-31T07:33:24;16.20;63.10
18177;DHT22;9213;50.858;3.964;2022-10-31T07:35:52;16.20;63.10
18177;DHT22;9213;50.858;3.964;2022-10-31T07:38:19;16.20;63.10
18177;DHT22;9213;50.858;3.964;2022-10-31T07:40:50;16.30;63.20
18177;DHT22;9213;50.858;3.964;2022-10-31T07:43:17;16.30;63.30
18177;DHT22;9213;50.858;3.964;2022-10-31T07:45:44;16.30;63.30
18177;DHT22;9213;50.858;3.964;2022-10-31T07:48:15;16.40;63.20
18177;DHT22;9213;50.858;3.964;2022-10-31T07:50:43;16.40;63.10
18177;DHT22;9213;50.858;3.964;2022-10-31T07:53:11;16.50;63.20
18177;DHT22;9213;50.858;3.964;2022-10-31T07:55:38;16.50;63.10
18177;DHT22;9213;50.858;3.964;2022-10-31T07:58:07;16.50;63.10
18177;DHT22;9213;50.858;3.964;2022-10-31T08:00:35;16.60;63.00
18177;DHT22;9213;50.858;3.964;2022-10-31T08:03:04;16.60;62.80
18177;DHT22;9213;50.858;3.964;2022-10-31T08:05:33;16.60;62.80
18177;DHT22;9213;50.858;3.964;2022-10-31T08:08:02;16.70;62.80
18177;DHT22;9213;50.858;3.964;2022-10-31T08:10:29;16.70;62.80
18177;DHT22;9213;50.858;3.964;2022-10-31T08:12:57;16.80;62.50
18177;DHT22;9213;50.858;3.964;2022-10-31T08:15:24;16.80;62.40
18177;DHT22;9213;50.858;3.964;2022-10-31T08:17:52;16.80;62.30
18177;DHT22;9213;50.858;3.964;2022-10-31T08:20:19;16.80;62.30
18177;DHT22;9213;50.858;3.964;2022-10-31T08:22:56;16.90;62.40
18177;DHT22;9213;50.858;3.964;2022-10-31T08:25:25;16.90;62.40
18177;DHT22;9213;50.858;3.964;2022-10-31T08:27:53;17.00;62.30
18177;DHT22;9213;50.858;3.964;2022-10-31T08:30:21;17.00;62.20
18177;DHT22;9213;50.858;3.964;2022-10-31T08:32:57;17.00;62.10
18177;DHT22;9213;50.858;3.964;2022-10-31T08:35:24;17.10;62.30
18177;DHT22;9213;50.858;3.964;2022-10-31T08:37:52;17.00;62.10
18177;DHT22;9213;50.858;3.964;2022-10-31T08:40:20;17.00;62.10
18177;DHT22;9213;50.858;3.964;2022-10-31T08:42:55;17.00;62.10
18177;DHT22;9213;50.858;3.964;2022-10-31T08:45:22;17.10;62.30
18177;DHT22;9213;50.858;3.964;2022-10-31T08:47:49;17.00;62.80
18177;DHT22;9213;50.858;3.964;2022-10-31T08:50:16;17.00;62.20
18177;DHT22;9213;50.858;3.964;2022-10-31T08:52:43;17.00;62.10
18177;DHT22;9213;50.858;3.964;2022-10-31T08:55:10;17.10;62.10
18177;DHT22;9213;50.858;3.964;2022-10-31T08:57:37;17.00;62.00
18177;DHT22;9213;50.858;3.964;2022-10-31T09:00:06;17.00;62.00
18177;DHT22;9213;50.858;3.964;2022-10-31T09:02:33;17.10;62.30
18177;DHT22;9213;50.858;3.964;2022-10-31T09:05:00;17.10;62.20
18177;DHT22;9213;50.858;3.964;2022-10-31T09:07:27;17.00;62.10
18177;DHT22;9213;50.858;3.964;2022-10-31T09:09:54;17.00;62.30
18177;DHT22;9213;50.858;3.964;2022-10-31T09:12:21;17.00;62.40
18177;DHT22;9213;50.858;3.964;2022-10-31T09:14:49;17.00;62.70
18177;DHT22;9213;50.858;3.964;2022-10-31T09:17:17;17.00;62.80
18177;DHT22;9213;50.858;3.964;2022-10-31T09:19:44;17.10;63.00
18177;DHT22;9213;50.858;3.964;2022-10-31T09:22:11;17.10;63.00
18177;DHT22;9213;50.858;3.964;2022-10-31T09:24:38;17.10;62.90
18177;DHT22;9213;50.858;3.964;2022-10-31T09:27:04;17.10;62.90
18177;DHT22;9213;50.858;3.964;2022-10-31T09:29:31;17.20;62.90
18177;DHT22;9213;50.858;3.964;2022-10-31T09:31:58;17.20;63.00
18177;DHT22;9213;50.858;3.964;2022-10-31T09:34:26;17.30;63.10
18177;DHT22;9213;50.858;3.964;2022-10-31T09:36:53;17.30;63.00
18177;DHT22;9213;50.858;3.964;2022-10-31T09:39:20;17.40;62.80
18177;DHT22;9213;50.858;3.964;2022-10-31T09:44:49;17.60;62.80
18177;DHT22;9213;50.858;3.964;2022-10-31T09:47:24;17.60;62.60
18177;DHT22;9213;50.858;3.964;2022-10-31T09:50:02;17.60;62.60
18177;DHT22;9213;50.858;3.964;2022-10-31T09:52:36;17.70;62.60
18177;DHT22;9213;50.858;3.964;2022-10-31T09:55:08;17.80;62.40
18177;DHT22;9213;50.858;3.964;2022-10-31T09:57:40;17.80;62.40
18177;DHT22;9213;50.858;3.964;2022-10-31T10:00:15;17.90;62.30
18177;DHT22;9213;50.858;3.964;2022-10-31T10:02:46;18.00;62.20
18177;DHT22;9213;50.858;3.964;2022-10-31T10:05:19;18.10;62.10
18177;DHT22;9213;50.858;3.964;2022-10-31T10:07:53;18.20;61.80
18177;DHT22;9213;50.858;3.964;2022-10-31T10:10:30;18.30;61.60
18177;DHT22;9213;50.858;3.964;2022-10-31T10:13:09;18.40;62.30
18177;DHT22;9213;50.858;3.964;2022-10-31T10:15:49;18.50;61.60
18177;DHT22;9213;50.858;3.964;2022-10-31T10:18:26;18.50;61.40
18177;DHT22;9213;50.858;3.964;2022-10-31T10:21:09;18.70;61.00
18177;DHT22;9213;50.858;3.964;2022-10-31T10:23:47;18.80;60.70
18177;DHT22;9213;50.858;3.964;2022-10-31T10:26:19;18.80;60.30
18177;DHT22;9213;50.858;3.964;2022-10-31T10:28:49;18.90;60.20
18177;DHT22;9213;50.858;3.964;2022-10-31T10:31:23;19.00;60.10
18177;DHT22;9213;50.858;3.964;2022-10-31T10:33:58;19.10;60.80
18177;DHT22;9213;50.858;3.964;2022-10-31T10:36:32;19.30;59.80
18177;DHT22;9213;50.858;3.964;2022-10-31T10:39:05;19.40;59.60
18177;DHT22;9213;50.858;3.964;2022-10-31T10:41:35;19.50;59.30
18177;DHT22;9213;50.858;3.964;2022-10-31T10:44:07;19.60;59.10
18177;DHT22;9213;50.858;3.964;2022-10-31T10:46:50;19.60;59.00
18177;DHT22;9213;50.858;3.964;2022-10-31T10:49:39;19.80;59.10
18177;DHT22;9213;50.858;3.964;2022-10-31T10:52:15;19.70;58.70
18177;DHT22;9213;50.858;3.964;2022-10-31T10:54:53;19.80;58.80
18177;DHT22;9213;50.858;3.964;2022-10-31T10:57:27;19.80;58.70
18177;DHT22;9213;50.858;3.964;2022-10-31T10:59:57;19.80;58.60
18177;DHT22;9213;50.858;3.964;2022-10-31T11:02:27;19.80;58.70
18177;DHT22;9213;50.858;3.964;2022-10-31T11:04:58;19.80;58.70
18177;DHT22;9213;50.858;3.964;2022-10-31T11:07:37;19.90;58.80
18177;DHT22;9213;50.858;3.964;2022-10-31T11:10:06;19.90;59.00
18177;DHT22;9213;50.858;3.964;2022-10-31T11:12:38;19.90;58.90
18177;DHT22;9213;50.858;3.964;2022-10-31T11:15:15;19.90;58.90
18177;DHT22;9213;50.858;3.964;2022-10-31T11:17:48;20.00;58.90
18177;DHT22;9213;50.858;3.964;2022-10-31T11:20:31;20.10;58.80
18177;DHT22;9213;50.858;3.964;2022-10-31T11:25:53;20.20;58.60
18177;DHT22;9213;50.858;3.964;2022-10-31T11:28:21;20.20;58.40
18177;DHT22;9213;50.858;3.964;2022-10-31T11:30:51;20.20;58.50
18177;DHT22;9213;50.858;3.964;2022-10-31T11:33:21;20.20;58.60
18177;DHT22;9213;50.858;3.964;2022-10-31T11:35:49;20.20;58.60
18177;DHT22;9213;50.858;3.964;2022-10-31T11:38:19;20.30;58.50
18177;DHT22;9213;50.858;3.964;2022-10-31T11:40:56;20.30;58.50
18177;DHT22;9213;50.858;3.964;2022-10-31T11:43:24;20.40;58.40
18177;DHT22;9213;50.858;3.964;2022-10-31T11:45:51;20.50;58.30
18177;DHT22;9213;50.858;3.964;2022-10-31T11:48:21;20.60;58.10
18177;DHT22;9213;50.858;3.964;2022-10-31T11:50:50;20.70;58.00
18177;DHT22;9213;50.858;3.964;2022-10-31T11:53:27;20.70;57.90
18177;DHT22;9213;50.858;3.964;2022-10-31T11:56:10;20.80;57.80
18177;DHT22;9213;50.858;3.964;2022-10-31T11:58:38;20.90;57.50
18177;DHT22;9213;50.858;3.964;2022-10-31T12:01:08;21.00;57.30
18177;DHT22;9213;50.858;3.964;2022-10-31T12:03:54;21.10;57.30
18177;DHT22;9213;50.858;3.964;2022-10-31T12:06:28;21.20;57.00
18177;DHT22;9213;50.858;3.964;2022-10-31T12:08:58;21.30;56.70
18177;DHT22;9213;50.858;3.964;2022-10-31T12:11:43;21.40;56.60
18177;DHT22;9213;50.858;3.964;2022-10-31T12:14:26;21.50;56.70
18177;DHT22;9213;50.858;3.964;2022-10-31T12:16:57;21.60;56.30
18177;DHT22;9213;50.858;3.964;2022-10-31T12:19:35;21.60;55.90
18177;DHT22;9213;50.858;3.964;2022-10-31T12:22:08;21.80;55.90
18177;DHT22;9213;50.858;3.964;2022-10-31T12:24:50;21.80;55.60
18177;DHT22;9213;50.858;3.964;2022-10-31T12:27:29;21.80;55.70
18177;DHT22;9213;50.858;3.964;2022-10-31T12:30:17;21.90;55.70
18177;DHT22;9213;50.858;3.964;2022-10-31T12:33:12;22.00;55.70
18177;DHT22;9213;50.858;3.964;2022-10-31T12:35:47;22.00;55.70
18177;DHT22;9213;50.858;3.964;2022-10-31T12:38:27;22.00;56.20
18177;DHT22;9213;50.858;3.964;2022-10-31T12:41:14;22.00;56.30
18177;DHT22;9213;50.858;3.964;2022-10-31T12:43:49;22.10;55.60
18177;DHT22;9213;50.858;3.964;2022-10-31T12:46:25;22.10;55.30
18177;DHT22;9213;50.858;3.964;2022-10-31T12:49:17;22.10;55.20
18177;DHT22;9213;50.858;3.964;2022-10-31T12:51:53;22.20;55.50
18177;DHT22;9213;50.858;3.964;2022-10-31T12:54:42;22.20;54.90
18177;DHT22;9213;50.858;3.964;2022-10-31T12:57:22;22.20;55.40
18177;DHT22;9213;50.858;3.964;2022-10-31T12:59:52;22.30;55.40
18177;DHT22;9213;50.858;3.964;2022-10-31T13:02:23;22.30;55.30
18177;DHT22;9213;50.858;3.964;2022-10-31T13:04:54;22.40;55.20
18177;DHT22;9213;50.858;3.964;2022-10-31T13:07:27;22.50;55.40
18177;DHT22;9213;50.858;3.964;2022-10-31T13:10:00;22.60;54.30
18177;DHT22;9213;50.858;3.964;2022-10-31T13:12:31;22.70;54.60
18177;DHT22;9213;50.858;3.964;2022-10-31T13:15:01;22.70;54.40
18177;DHT22;9213;50.858;3.964;2022-10-31T13:17:37;22.80;54.30
18177;DHT22;9213;50.858;3.964;2022-10-31T13:20:20;22.90;53.70
18177;DHT22;9213;50.858;3.964;2022-10-31T13:22:51;23.00;54.10
18177;DHT22;9213;50.858;3.964;2022-10-31T13:25:21;22.90;53.00
18177;DHT22;9213;50.858;3.964;2022-10-31T13:27:56;22.90;53.80
18177;DHT22;9213;50.858;3.964;2022-10-31T13:30:26;23.00;54.10
18177;DHT22;9213;50.858;3.964;2022-10-31T13:32:58;22.90;54.30
18177;DHT22;9213;50.858;3.964;2022-10-31T13:35:30;23.00;53.70
18177;DHT22;9213;50.858;3.964;2022-10-31T13:38:10;22.90;54.40
18177;DHT22;9213;50.858;3.964;2022-10-31T13:40:45;23.00;55.00
18177;DHT22;9213;50.858;3.964;2022-10-31T13:43:24;22.90;54.10
18177;DHT22;9213;50.858;3.964;2022-10-31T13:45:55;23.00;54.40
18177;DHT22;9213;50.858;3.964;2022-10-31T13:48:37;22.90;53.90
18177;DHT22;9213;50.858;3.964;2022-10-31T13:51:08;23.00;53.80
18177;DHT22;9213;50.858;3.964;2022-10-31T13:53:40;22.90;54.40
18177;DHT22;9213;50.858;3.964;2022-10-31T13:56:17;22.90;52.90
18177;DHT22;9213;50.858;3.964;2022-10-31T13:59:03;22.90;53.10
18177;DHT22;9213;50.858;3.964;2022-10-31T14:01:31;23.00;53.20
18177;DHT22;9213;50.858;3.964;2022-10-31T14:04:04;22.90;53.20
18177;DHT22;9213;50.858;3.964;2022-10-31T14:06:48;23.00;53.10
18177;DHT22;9213;50.858;3.964;2022-10-31T14:09:24;23.00;53.60
18177;DHT22;9213;50.858;3.964;2022-10-31T14:11:52;23.00;53.60
18177;DHT22;9213;50.858;3.964;2022-10-31T14:14:23;22.90;53.60
18177;DHT22;9213;50.858;3.964;2022-10-31T14:16:56;22.90;53.90
18177;DHT22;9213;50.858;3.964;2022-10-31T14:19:23;22.90;53.90
18177;DHT22;9213;50.858;3.964;2022-10-31T14:21:51;22.90;53.70
18177;DHT22;9213;50.858;3.964;2022-10-31T14:24:35;22.90;53.10
18177;DHT22;9213;50.858;3.964;2022-10-31T14:27:04;23.00;53.20
18177;DHT22;9213;50.858;3.964;2022-10-31T14:29:52;22.90;52.80
18177;DHT22;9213;50.858;3.964;2022-10-31T14:32:21;23.00;52.90
18177;DHT22;9213;50.858;3.964;2022-10-31T14:34:53;23.00;52.60
18177;DHT22;9213;50.858;3.964;2022-10-31T14:37:44;23.10;52.40
18177;DHT22;9213;50.858;3.964;2022-10-31T14:40:23;23.20;52.60
18177;DHT22;9213;50.858;3.964;2022-10-31T14:46:13;23.20;51.90
18177;DHT22;9213;50.858;3.964;2022-10-31T14:49:01;23.10;51.60
18177;DHT22;9213;50.858;3.964;2022-10-31T14:51:35;23.00;51.50
18177;DHT22;9213;50.858;3.964;2022-10-31T14:54:05;22.90;51.30
18177;DHT22;9213;50.858;3.964;2022-10-31T14:56:35;22.80;51.60
18177;DHT22;9213;50.858;3.964;2022-10-31T14:59:07;22.80;52.60
18177;DHT22;9213;50.858;3.964;2022-10-31T15:01:38;22.70;51.90
18177;DHT22;9213;50.858;3.964;2022-10-31T15:04:13;22.60;51.80
18177;DHT22;9213;50.858;3.964;2022-10-31T15:06:44;22.60;51.50
18177;DHT22;9213;50.858;3.964;2022-10-31T15:09:32;22.60;52.20
18177;DHT22;9213;50.858;3.964;2022-10-31T15:12:00;22.60;51.60
18177;DHT22;9213;50.858;3.964;2022-10-31T15:14:29;22.50;51.00
18177;DHT22;9213;50.858;3.964;2022-10-31T15:16:59;22.40;50.80
18177;DHT22;9213;50.858;3.964;2022-10-31T15:19:29;22.40;51.10
18177;DHT22;9213;50.858;3.964;2022-10-31T15:21:57;22.30;51.10
18177;DHT22;9213;50.858;3.964;2022-10-31T15:24:30;22.30;50.90
18177;DHT22;9213;50.858;3.964;2022-10-31T15:26:58;22.30;50.80
18177;DHT22;9213;50.858;3.964;2022-10-31T15:29:26;22.20;50.60
18177;DHT22;9213;50.858;3.964;2022-10-31T15:31:56;22.10;50.80
18177;DHT22;9213;50.858;3.964;2022-10-31T15:34:30;22.10;50.80
18177;DHT22;9213;50.858;3.964;2022-10-31T15:36:59;22.10;51.00
18177;DHT22;9213;50.858;3.964;2022-10-31T15:39:26;22.10;51.10
18177;DHT22;9213;50.858;3.964;2022-10-31T15:41:54;22.00;51.00
18177;DHT22;9213;50.858;3.964;2022-10-31T15:44:26;21.90;51.30
18177;DHT22;9213;50.858;3.964;2022-10-31T15:46:56;21.90;51.50
18177;DHT22;9213;50.858;3.964;2022-10-31T15:49:36;21.80;51.40
18177;DHT22;9213;50.858;3.964;2022-10-31T15:52:08;21.90;51.70
18177;DHT22;9213;50.858;3.964;2022-10-31T15:54:45;21.80;51.60
18177;DHT22;9213;50.858;3.964;2022-10-31T15:57:12;21.80;51.80
18177;DHT22;9213;50.858;3.964;2022-10-31T15:59:40;21.60;51.80
18177;DHT22;9213;50.858;3.964;2022-10-31T16:02:10;21.60;52.00
18177;DHT22;9213;50.858;3.964;2022-10-31T16:04:48;21.60;52.10
18177;DHT22;9213;50.858;3.964;2022-10-31T16:07:17;21.50;52.40
18177;DHT22;9213;50.858;3.964;2022-10-31T16:09:53;21.40;52.40
18177;DHT22;9213;50.858;3.964;2022-10-31T16:12:21;21.40;52.60
18177;DHT22;9213;50.858;3.964;2022-10-31T16:14:49;21.30;52.80
18177;DHT22;9213;50.858;3.964;2022-10-31T16:17:18;21.30;52.90